Cross Roads, Texas
Current Conditions -  °F | °C
As of 12:15 PM on Thursday 23 Oct 2014 (Local Time) from KT35 Reporting Station
Clear Clear  
Wind Chill: 74°   Ceiling: Unl
Heat Index: 74°   Visibility: 10mi
Dew Point: 58°   Wind: 6mph
Humidity: 56%   Direction: 170°S
Pressure: 30.16"   Gusts: NA
Location:  30.8332°N, 96.9826°W
Report Text: KT35 231715Z AUTO 17005KT 10SM CLR 23/14 A3016 RMK AO2 T02340143
Loading
Personal Weather Stations






























Interactive Weather Map
Tropical Storm Tracking
New forecast layout! Learn more

10-Day Weather Forecast

Advertisements
Track Severe Weather on mobile